Time;durP1;ratioP1;P1;durP2;ratioP2;P2;SDS_P1;SDS_P2;PMS_P1;PMS_P2;Temp;Humidity;BMP_temperature;BMP_pressure;BME280_temperature;BME280_humidity;BME280_pressure;Samples;Min_cycle;Max_cycle;Signal;HPM_P1;HPM_P2
2021/09/02 00:02:12;;;;;;;26.35;10.50;;;15.60;99.90;;;;;;4991484;28;20240;-62
2021/09/02 00:04:38;;;;;;;24.75;10.55;;;15.60;99.90;;;;;;4993112;28;20034;-62
2021/09/02 00:07:04;;;;;;;30.08;13.00;;;15.60;99.90;;;;;;4992284;28;20348;-63
2021/09/02 00:09:30;;;;;;;22.10;10.70;;;15.50;99.90;;;;;;4991584;28;20034;-63
2021/09/02 00:11:57;;;;;;;24.67;11.13;;;15.50;99.90;;;;;;4990163;28;20034;-63
2021/09/02 00:14:24;;;;;;;25.92;11.85;;;15.50;99.90;;;;;;4990397;28;20089;-63
2021/09/02 00:16:50;;;;;;;26.75;11.63;;;15.50;99.90;;;;;;4991005;28;20038;-62
2021/09/02 00:19:16;;;;;;;23.25;11.15;;;15.50;99.90;;;;;;4992352;28;20280;-63
2021/09/02 00:21:42;;;;;;;23.63;11.70;;;15.50;99.90;;;;;;4990862;28;20039;-63
2021/09/02 00:24:09;;;;;;;22.52;10.45;;;15.50;99.90;;;;;;4993037;28;20055;-63
2021/09/02 00:26:35;;;;;;;26.05;11.93;;;15.50;99.90;;;;;;4990418;28;20081;-63
2021/09/02 00:29:01;;;;;;;25.27;10.90;;;15.50;99.90;;;;;;4992224;28;20030;-62
2021/09/02 00:31:27;;;;;;;25.13;12.20;;;15.60;99.90;;;;;;4990208;28;20212;-63
2021/09/02 00:33:53;;;;;;;30.15;11.35;;;15.70;99.90;;;;;;4991534;28;20049;-63
2021/09/02 00:36:19;;;;;;;25.25;10.73;;;15.70;99.90;;;;;;4991803;28;20032;-63
2021/09/02 00:38:44;;;;;;;27.67;11.27;;;15.70;99.90;;;;;;4992483;28;20038;-63
2021/09/02 00:41:10;;;;;;;32.47;13.10;;;15.60;99.90;;;;;;4989524;28;20045;-63
2021/09/02 00:43:41;;;;;;;26.08;12.45;;;15.60;99.90;;;;;;4991108;28;20433;-63
2021/09/02 00:46:09;;;;;;;32.67;12.95;;;15.60;99.90;;;;;;4991659;28;20293;-63
2021/09/02 00:48:35;;;;;;;20.83;10.85;;;15.60;99.90;;;;;;4991272;28;20053;-63
2021/09/02 00:51:01;;;;;;;29.75;11.77;;;15.60;99.90;;;;;;4991540;28;20053;-63
2021/09/02 00:53:30;;;;;;;28.08;12.73;;;15.60;99.90;;;;;;4991811;28;20021;-62
2021/09/02 00:55:57;;;;;;;28.80;11.77;;;15.50;99.90;;;;;;4991045;28;20094;-63
2021/09/02 00:58:22;;;;;;;25.08;12.68;;;15.60;99.90;;;;;;4989976;28;20022;-63
2021/09/02 01:00:48;;;;;;;28.15;11.68;;;15.60;99.90;;;;;;4990905;28;20053;-63
2021/09/02 01:03:18;;;;;;;25.77;10.98;;;15.60;99.90;;;;;;4991016;28;20038;-63
2021/09/02 01:05:47;;;;;;;25.23;11.73;;;15.60;99.90;;;;;;4990518;28;20317;-62
2021/09/02 01:08:14;;;;;;;24.10;11.55;;;15.70;99.90;;;;;;4989364;28;20030;-63
2021/09/02 01:10:41;;;;;;;29.35;11.98;;;15.70;99.90;;;;;;4989002;28;20291;-63
2021/09/02 01:13:07;;;;;;;26.20;12.27;;;15.60;99.90;;;;;;4990444;28;20081;-63
2021/09/02 01:15:33;;;;;;;24.92;11.55;;;15.60;99.90;;;;;;4990073;28;20070;-63
2021/09/02 01:18:00;;;;;;;34.88;12.00;;;15.60;99.90;;;;;;4991242;28;20049;-63
2021/09/02 01:20:28;;;;;;;24.95;11.52;;;15.60;99.90;;;;;;4991038;28;20059;-63
2021/09/02 01:22:57;;;;;;;28.27;12.82;;;15.70;99.90;;;;;;4991292;28;20038;-62
2021/09/02 01:25:26;;;;;;;24.95;11.20;;;15.70;99.90;;;;;;4991213;28;20026;-63
2021/09/02 01:27:54;;;;;;;27.73;12.48;;;15.60;99.90;;;;;;4994410;28;20058;-63
2021/09/02 01:30:21;;;;;;;26.88;12.25;;;15.60;99.90;;;;;;4993626;28;20041;-63
2021/09/02 01:32:49;;;;;;;24.33;11.70;;;15.60;99.90;;;;;;4992190;28;20064;-63
2021/09/02 01:35:16;;;;;;;31.38;12.40;;;15.70;99.90;;;;;;4985151;28;20027;-63
2021/09/02 01:37:44;;;;;;;27.58;12.75;;;15.60;99.90;;;;;;4995438;28;20040;-63
2021/09/02 01:40:24;;;;;;;25.92;12.57;;;15.70;99.90;;;;;;4994087;28;20209;-62
2021/09/02 01:42:50;;;;;;;32.45;12.38;;;15.70;99.90;;;;;;4993862;28;20038;-62
2021/09/02 01:45:17;;;;;;;31.00;13.70;;;15.60;99.90;;;;;;4993491;28;20090;-63
2021/09/02 01:47:43;;;;;;;34.05;12.57;;;15.70;99.90;;;;;;4992828;28;20034;-63
2021/09/02 01:50:12;;;;;;;30.15;12.88;;;15.60;99.90;;;;;;4994605;28;20026;-63
2021/09/02 01:52:39;;;;;;;33.57;12.87;;;15.70;99.90;;;;;;4994726;28;20034;-63
2021/09/02 01:55:08;;;;;;;28.17;12.55;;;15.70;99.90;;;;;;4995152;28;20667;-63
2021/09/02 01:57:35;;;;;;;32.95;14.02;;;15.60;99.90;;;;;;4993837;28;20316;-62
2021/09/02 02:00:05;;;;;;;26.13;13.00;;;15.60;99.90;;;;;;4993270;28;20039;-63
2021/09/02 02:02:31;;;;;;;;;;;15.60;99.90;;;;;;5008540;28;20052;-63
2021/09/02 02:04:57;;;;;;;30.95;11.93;;;15.60;99.90;;;;;;4992521;28;19913;-63
2021/09/02 02:07:22;;;;;;;26.23;12.57;;;15.60;99.90;;;;;;4993617;28;20022;-63
2021/09/02 02:09:48;;;;;;;30.90;12.52;;;15.60;99.90;;;;;;4993672;28;20032;-63
2021/09/02 02:12:14;;;;;;;27.60;12.30;;;15.60;99.90;;;;;;4993987;28;20320;-63
2021/09/02 02:14:40;;;;;;;28.23;13.20;;;15.60;99.90;;;;;;4993871;28;20046;-63
2021/09/02 02:17:06;;;;;;;29.65;12.65;;;15.50;99.90;;;;;;4993777;28;20027;-63
2021/09/02 02:19:32;;;;;;;30.00;14.00;;;15.60;99.90;;;;;;4992500;28;20030;-63
2021/09/02 02:21:58;;;;;;;28.17;13.32;;;15.60;99.90;;;;;;4993591;28;20050;-63
2021/09/02 02:24:24;;;;;;;31.73;13.20;;;15.60;99.90;;;;;;4992177;28;20026;-63
2021/09/02 02:26:50;;;;;;;26.27;11.75;;;15.50;99.90;;;;;;4993253;28;20036;-63
2021/09/02 02:29:16;;;;;;;24.48;12.35;;;15.50;99.90;;;;;;4992238;28;20279;-63
2021/09/02 02:31:42;;;;;;;33.13;12.45;;;15.50;99.90;;;;;;4994699;28;20037;-63
2021/09/02 02:34:08;;;;;;;25.27;11.70;;;15.50;99.90;;;;;;4991800;28;20559;-63
2021/09/02 02:36:33;;;;;;;27.55;12.48;;;15.50;99.90;;;;;;4993757;28;20597;-63
2021/09/02 02:38:59;;;;;;;29.90;12.93;;;15.50;99.90;;;;;;4993535;28;20342;-63
2021/09/02 02:41:25;;;;;;;26.40;12.77;;;15.50;99.90;;;;;;4992444;28;20042;-62
2021/09/02 02:43:51;;;;;;;25.45;12.05;;;15.50;99.90;;;;;;4992768;28;20373;-63
2021/09/02 02:46:17;;;;;;;30.73;12.20;;;15.50;99.90;;;;;;4993678;28;20261;-63
2021/09/02 02:48:43;;;;;;;30.42;13.18;;;15.50;99.90;;;;;;4992622;28;20530;-63
2021/09/02 02:51:09;;;;;;;29.20;13.38;;;15.50;99.90;;;;;;4994360;28;20026;-63
2021/09/02 02:53:35;;;;;;;35.60;12.93;;;15.50;99.90;;;;;;4993135;28;20286;-63
2021/09/02 02:56:01;;;;;;;31.00;12.25;;;15.50;99.90;;;;;;5001477;28;20141;-63
2021/09/02 02:58:27;;;;;;;27.77;13.68;;;15.50;99.90;;;;;;4992526;28;20046;-63
2021/09/02 03:00:53;;;;;;;24.58;12.18;;;15.60;99.90;;;;;;4992601;28;20415;-63
2021/09/02 03:03:19;;;;;;;33.50;13.75;;;15.60;99.90;;;;;;4993342;28;20042;-63
2021/09/02 03:05:45;;;;;;;31.30;13.30;;;15.50;99.90;;;;;;4992510;28;20030;-63
2021/09/02 03:08:11;;;;;;;29.15;12.48;;;15.50;99.90;;;;;;4992873;28;20351;-63
2021/09/02 03:10:36;;;;;;;32.47;13.95;;;15.60;99.90;;;;;;4992602;28;20102;-63
2021/09/02 03:13:02;;;;;;;29.08;12.77;;;15.60;99.90;;;;;;4991999;28;20040;-63
2021/09/02 03:15:30;;;;;;;29.48;13.88;;;15.60;99.90;;;;;;4992976;28;20057;-63
2021/09/02 03:17:57;;;;;;;25.35;12.82;;;15.60;99.90;;;;;;4992277;28;20243;-63
2021/09/02 03:20:23;;;;;;;26.85;13.18;;;15.60;99.90;;;;;;4993998;28;20324;-63
2021/09/02 03:22:49;;;;;;;32.70;12.45;;;15.50;99.90;;;;;;4991531;28;20049;-63
2021/09/02 03:25:15;;;;;;;36.42;14.48;;;15.50;99.90;;;;;;4993719;28;20024;-63
2021/09/02 03:27:41;;;;;;;24.35;13.13;;;15.60;99.90;;;;;;4991556;28;20101;-63
2021/09/02 03:30:08;;;;;;;27.42;13.57;;;15.50;99.90;;;;;;4992183;28;20361;-63
2021/09/02 03:32:34;;;;;;;27.48;14.18;;;15.40;99.90;;;;;;4991834;28;20022;-63
2021/09/02 03:35:00;;;;;;;27.67;13.13;;;15.40;99.90;;;;;;4991591;28;20030;-63
2021/09/02 03:37:26;;;;;;;35.17;14.40;;;15.40;99.90;;;;;;4992090;28;20026;-61
2021/09/02 03:39:52;;;;;;;32.38;13.63;;;15.40;99.90;;;;;;4990482;28;20053;-63
2021/09/02 03:42:18;;;;;;;30.20;14.15;;;15.30;99.90;;;;;;4992687;28;20034;-63
2021/09/02 03:44:44;;;;;;;32.13;14.48;;;15.20;99.90;;;;;;4992282;28;20022;-63
2021/09/02 03:47:09;;;;;;;32.63;14.20;;;15.20;99.90;;;;;;4992085;28;20316;-62
2021/09/02 03:49:35;;;;;;;32.33;14.70;;;15.20;99.90;;;;;;4991937;28;20072;-63
2021/09/02 03:52:01;;;;;;;31.65;14.23;;;15.20;99.90;;;;;;4988887;28;20061;-62
2021/09/02 03:54:27;;;;;;;30.67;13.45;;;15.30;99.90;;;;;;4989425;28;20423;-62
2021/09/02 03:56:53;;;;;;;29.95;13.82;;;15.30;99.90;;;;;;4990308;28;20221;-63
2021/09/02 03:59:19;;;;;;;30.67;13.82;;;15.20;99.90;;;;;;4986479;28;20052;-63
2021/09/02 04:01:56;;;;;;;22.25;13.00;;;15.20;99.90;;;;;;4998287;28;20073;-63
2021/09/02 04:04:22;;;;;;;26.42;14.38;;;15.10;99.90;;;;;;4988897;28;20353;-63
2021/09/02 04:06:49;;;;;;;29.15;13.30;;;15.10;99.90;;;;;;4989185;28;20034;-64
2021/09/02 04:09:15;;;;;;;28.92;13.55;;;15.10;99.90;;;;;;5003015;28;20328;-73
2021/09/02 04:11:46;;;;;;;25.85;13.02;;;15.20;99.90;;;;;;5000369;28;20041;-73
2021/09/02 04:14:14;;;;;;;34.13;14.00;;;15.20;99.90;;;;;;4983818;28;20097;-69
2021/09/02 04:16:50;;;;;;;24.75;12.57;;;15.10;99.90;;;;;;4985986;28;20058;-69
2021/09/02 04:19:19;;;;;;;30.83;14.25;;;15.10;99.90;;;;;;4988794;28;20073;-69
2021/09/02 04:21:49;;;;;;;28.80;13.70;;;15.00;99.90;;;;;;4983517;28;20339;-69
2021/09/02 04:24:19;;;;;;;37.28;14.85;;;15.00;99.90;;;;;;4998500;28;20081;-69
2021/09/02 04:26:53;;;;;;;32.65;13.10;;;15.00;99.90;;;;;;4988818;28;20030;-69
2021/09/02 04:29:27;;;;;;;27.98;13.80;;;15.10;99.90;;;;;;5004107;28;20262;-69
2021/09/02 04:31:57;;;;;;;28.88;13.43;;;15.10;99.90;;;;;;4989050;28;20037;-68
2021/09/02 04:34:30;;;;;;;40.95;15.93;;;14.90;99.90;;;;;;4988021;28;20252;-69
2021/09/02 04:37:01;;;;;;;32.92;14.30;;;14.90;99.90;;;;;;4985873;28;20038;-69
2021/09/02 04:39:32;;;;;;;34.05;13.77;;;14.80;99.90;;;;;;4984784;28;20128;-69
2021/09/02 04:42:04;;;;;;;32.78;13.95;;;14.70;99.90;;;;;;4983547;28;20065;-69
2021/09/02 04:44:30;;;;;;;34.65;15.55;;;14.70;99.90;;;;;;4987087;28;20309;-69
2021/09/02 04:46:58;;;;;;;43.25;16.48;;;14.60;99.90;;;;;;4987967;28;20057;-69
2021/09/02 04:49:28;;;;;;;38.80;15.73;;;14.50;99.90;;;;;;4985713;28;20022;-69
2021/09/02 04:52:00;;;;;;;39.47;15.60;;;14.60;99.90;;;;;;5002884;28;20352;-69
2021/09/02 04:54:31;;;;;;;38.50;14.98;;;14.50;99.90;;;;;;5003156;28;20233;-69
2021/09/02 04:57:00;;;;;;;35.20;16.30;;;14.50;99.90;;;;;;4988424;28;20030;-68
2021/09/02 04:59:33;;;;;;;29.88;14.32;;;14.60;99.90;;;;;;4989876;28;20861;-69
2021/09/02 05:02:00;;;;;;;35.28;14.73;;;14.60;99.90;;;;;;5001012;28;20070;-68
2021/09/02 05:04:26;;;;;;;32.88;15.20;;;14.50;99.90;;;;;;4994902;28;20061;-69
2021/09/02 05:06:52;;;;;;;41.40;15.38;;;14.50;99.90;;;;;;4994622;28;20635;-69
2021/09/02 05:09:18;;;;;;;29.58;15.15;;;14.40;99.90;;;;;;4995663;28;20030;-69
2021/09/02 05:11:44;;;;;;;32.15;14.25;;;14.50;99.90;;;;;;4995556;28;20034;-69
2021/09/02 05:14:09;;;;;;;26.88;14.10;;;14.50;99.90;;;;;;4995144;28;20232;-68
2021/09/02 05:16:35;;;;;;;38.67;13.95;;;14.60;99.90;;;;;;4995301;28;20030;-69
2021/09/02 05:19:01;;;;;;;29.65;13.25;;;14.50;99.90;;;;;;4994084;28;20498;-68
2021/09/02 05:21:27;;;;;;;30.67;13.35;;;14.50;99.90;;;;;;4995975;28;20065;-69
2021/09/02 05:23:53;;;;;;;27.50;12.70;;;14.50;99.90;;;;;;4995954;28;20078;-69
2021/09/02 05:26:19;;;;;;;27.83;13.60;;;14.50;99.90;;;;;;4996501;28;20022;-68
2021/09/02 05:28:47;;;;;;;29.15;14.23;;;14.60;99.90;;;;;;5009924;28;20034;-69
2021/09/02 05:31:13;;;;;;;42.80;16.15;;;14.70;99.90;;;;;;5002902;28;20288;-68
2021/09/02 05:33:39;;;;;;;33.25;13.93;;;14.50;99.90;;;;;;4995199;28;20053;-69
2021/09/02 05:36:05;;;;;;;33.22;15.00;;;14.50;99.90;;;;;;4994268;28;20053;-68
2021/09/02 05:38:30;;;;;;;39.67;15.43;;;14.40;99.90;;;;;;4995909;28;20026;-68
2021/09/02 05:40:57;;;;;;;31.15;15.63;;;14.50;99.90;;;;;;4996173;28;20072;-69
2021/09/02 05:43:23;;;;;;;33.97;15.38;;;14.50;99.90;;;;;;4994311;28;20121;-68
2021/09/02 05:45:48;;;;;;;32.00;15.68;;;14.50;99.90;;;;;;4995303;28;20034;-69
2021/09/02 05:48:14;;;;;;;32.72;15.75;;;14.50;99.90;;;;;;4995480;28;20038;-69
2021/09/02 05:50:40;;;;;;;40.83;16.30;;;14.50;99.90;;;;;;4995837;28;20022;-68
2021/09/02 05:53:06;;;;;;;41.45;16.80;;;14.50;99.90;;;;;;4995771;28;20243;-69
2021/09/02 05:55:32;;;;;;;36.03;15.18;;;14.50;99.90;;;;;;4995922;28;20335;-69
2021/09/02 05:57:58;;;;;;;32.38;14.43;;;14.50;99.90;;;;;;4994048;28;20129;-69
2021/09/02 06:00:24;;;;;;;30.17;13.68;;;14.60;99.90;;;;;;4994276;28;20367;-69
2021/09/02 06:02:49;;;;;;;32.65;15.13;;;14.60;99.90;;;;;;4995382;28;20324;-69
2021/09/02 06:05:15;;;;;;;32.20;12.95;;;14.70;99.90;;;;;;4994203;28;20064;-69
2021/09/02 06:07:41;;;;;;;28.73;12.98;;;14.70;99.90;;;;;;4995272;28;20034;-68
2021/09/02 06:10:09;;;;;;;34.17;14.05;;;14.70;99.90;;;;;;4995317;28;20092;-69
2021/09/02 06:12:35;;;;;;;28.80;13.45;;;14.70;99.90;;;;;;4993596;28;20034;-69
2021/09/02 06:15:01;;;;;;;27.02;13.30;;;14.70;99.90;;;;;;4994148;28;20370;-69
2021/09/02 06:17:30;;;;;;;27.33;12.18;;;14.70;99.90;;;;;;4993586;28;20040;-69
2021/09/02 06:20:07;;;;;;;25.35;13.23;;;14.80;99.90;;;;;;4993087;28;20349;-69
2021/09/02 06:22:34;;;;;;;25.38;13.80;;;14.80;99.90;;;;;;4994815;28;20081;-69
2021/09/02 06:25:00;;;;;;;30.88;13.02;;;14.80;99.90;;;;;;4993755;28;20101;-68
2021/09/02 06:27:38;;;;;;;27.45;14.70;;;14.80;99.90;;;;;;4993229;28;20323;-68
2021/09/02 06:30:15;;;;;;;33.50;14.85;;;14.70;99.90;;;;;;4992071;28;20074;-69
2021/09/02 06:32:41;;;;;;;33.85;14.68;;;14.70;99.90;;;;;;4995006;28;20058;-68
2021/09/02 06:35:07;;;;;;;27.88;13.13;;;14.70;99.90;;;;;;4994745;28;20072;-69
2021/09/02 06:37:34;;;;;;;26.80;12.60;;;14.80;99.90;;;;;;4993614;28;20040;-68
2021/09/02 06:40:09;;;;;;;26.88;12.73;;;14.80;99.90;;;;;;5009125;28;20033;-68
2021/09/02 06:42:46;;;;;;;28.48;12.57;;;14.90;99.90;;;;;;4992873;28;20136;-69
2021/09/02 06:45:21;;;;;;;25.05;13.55;;;14.90;99.90;;;;;;4993349;28;20018;-69
2021/09/02 06:48:04;;;;;;;30.95;13.18;;;14.80;99.90;;;;;;4994499;28;20086;-69
2021/09/02 06:50:46;;;;;;;27.38;13.65;;;14.70;99.90;;;;;;4992887;28;20409;-69
2021/09/02 06:53:22;;;;;;;27.70;12.98;;;14.70;99.90;;;;;;4991967;28;20038;-69
2021/09/02 06:56:09;;;;;;;25.02;13.15;;;14.70;99.90;;;;;;4998615;28;20018;-69
2021/09/02 06:58:48;;;;;;;28.17;12.60;;;14.70;99.90;;;;;;4993053;28;20034;-69
2021/09/02 07:01:34;;;;;;;30.67;13.38;;;14.70;99.90;;;;;;4988817;28;20040;-69
2021/09/02 07:04:18;;;;;;;25.33;14.25;;;14.80;99.90;;;;;;4993424;28;20089;-69
2021/09/02 07:06:56;;;;;;;29.55;14.57;;;14.90;99.90;;;;;;4985798;28;20068;-69
2021/09/02 07:09:30;;;;;;;31.02;13.40;;;14.80;99.90;;;;;;4990233;28;20115;-69
2021/09/02 07:12:17;;;;;;;29.85;13.70;;;14.90;99.90;;;;;;4978683;28;20043;-69
2021/09/02 07:15:02;;;;;;;25.70;12.48;;;14.90;99.90;;;;;;4992608;28;20058;-69
2021/09/02 07:17:38;;;;;;;21.10;11.55;;;14.90;99.90;;;;;;4991124;28;20030;-69
2021/09/02 07:20:18;;;;;;;21.60;11.60;;;14.90;99.90;;;;;;4991806;28;20092;-69
2021/09/02 07:22:43;;;;;;;24.40;11.75;;;14.90;99.90;;;;;;4993901;28;20216;-69
2021/09/02 07:25:10;;;;;;;21.42;11.75;;;14.90;99.90;;;;;;4992721;28;20026;-69
2021/09/02 07:27:36;;;;;;;22.80;12.05;;;14.90;99.90;;;;;;4993702;28;20034;-69
2021/09/02 07:30:03;;;;;;;28.20;12.95;;;14.90;99.90;;;;;;4993937;28;20257;-69
2021/09/02 07:32:30;;;;;;;22.83;11.80;;;15.00;99.90;;;;;;4993544;28;20065;-69
2021/09/02 07:34:57;;;;;;;26.67;13.40;;;14.90;99.90;;;;;;4993637;28;20232;-69
2021/09/02 07:37:23;;;;;;;25.35;12.85;;;14.90;99.90;;;;;;4993275;28;20033;-69
2021/09/02 07:39:49;;;;;;;28.27;13.77;;;15.00;99.90;;;;;;4992669;28;20030;-69
2021/09/02 07:42:15;;;;;;;34.83;16.00;;;15.10;99.90;;;;;;4993575;28;20089;-69
2021/09/02 07:44:41;;;;;;;30.98;13.73;;;15.10;99.90;;;;;;4993066;28;20034;-69
2021/09/02 07:47:07;;;;;;;24.88;13.00;;;15.10;99.90;;;;;;4993652;28;20034;-69
2021/09/02 07:49:32;;;;;;;31.13;13.80;;;15.20;99.90;;;;;;4993507;28;20249;-69
2021/09/02 07:51:58;;;;;;;28.15;14.10;;;15.30;99.90;;;;;;4993004;28;20316;-68
2021/09/02 07:54:24;;;;;;;27.23;13.30;;;15.30;99.90;;;;;;4993049;28;20365;-69
2021/09/02 07:56:50;;;;;;;25.40;13.70;;;15.40;99.90;;;;;;4993199;28;20399;-69
2021/09/02 07:59:17;;;;;;;26.58;12.48;;;15.50;99.90;;;;;;4991198;28;20495;-69
2021/09/02 08:01:43;;;;;;;24.27;12.02;;;15.50;99.90;;;;;;4992677;28;20072;-69
2021/09/02 08:04:10;;;;;;;25.85;10.82;;;15.40;99.90;;;;;;4992318;28;20036;-69
2021/09/02 08:06:36;;;;;;;19.10;10.45;;;15.30;99.90;;;;;;4994649;28;20026;-69
2021/09/02 08:09:02;;;;;;;17.25;10.18;;;15.40;99.90;;;;;;4992282;28;20125;-69
2021/09/02 08:11:29;;;;;;;18.65;10.15;;;15.40;99.90;;;;;;4992821;28;20053;-69
2021/09/02 08:13:55;;;;;;;15.95;9.60;;;15.40;99.90;;;;;;4992903;28;20034;-69
2021/09/02 08:16:23;;;;;;;23.35;11.13;;;15.40;99.90;;;;;;4992371;28;20058;-68
2021/09/02 08:18:48;;;;;;;24.25;10.18;;;15.40;99.90;;;;;;4991680;28;20104;-69
2021/09/02 08:21:15;;;;;;;22.65;11.80;;;15.50;99.90;;;;;;4993183;28;20034;-69
2021/09/02 08:23:42;;;;;;;17.10;10.57;;;15.60;99.90;;;;;;4992283;28;20333;-69
2021/09/02 08:26:08;;;;;;;22.95;10.50;;;15.70;99.90;;;;;;4993004;28;20076;-69
2021/09/02 08:28:34;;;;;;;22.13;10.80;;;15.70;99.90;;;;;;4992755;28;20030;-69
2021/09/02 08:31:00;;;;;;;20.83;10.15;;;15.70;99.90;;;;;;4992878;28;20050;-69
2021/09/02 08:33:26;;;;;;;18.40;9.75;;;15.80;99.90;;;;;;4992224;28;20072;-69
2021/09/02 08:35:53;;;;;;;16.00;9.32;;;15.90;99.90;;;;;;4991948;28;20516;-69
2021/09/02 08:38:20;;;;;;;15.43;9.88;;;16.10;99.90;;;;;;4992441;28;20021;-69
2021/09/02 08:40:46;;;;;;;18.85;10.98;;;16.00;99.90;;;;;;4992248;28;20520;-69
2021/09/02 08:43:13;;;;;;;20.25;10.73;;;16.00;99.90;;;;;;4992943;28;20046;-69
2021/09/02 08:45:39;;;;;;;27.92;10.88;;;15.90;99.90;;;;;;4991863;28;20324;-69
2021/09/02 08:48:05;;;;;;;20.58;10.23;;;16.00;99.90;;;;;;4992070;28;20312;-69
2021/09/02 08:50:35;;;;;;;18.30;10.45;;;16.00;99.90;;;;;;4993025;28;20019;-69
2021/09/02 08:53:02;;;;;;;20.60;10.38;;;16.10;99.90;;;;;;4991175;28;20072;-69
2021/09/02 08:55:29;;;;;;;19.42;10.68;;;16.30;99.90;;;;;;4992708;28;20034;-69
2021/09/02 08:57:56;;;;;;;21.70;10.85;;;16.50;99.90;;;;;;4992894;28;20026;-69
2021/09/02 09:00:23;;;;;;;17.60;10.23;;;16.60;99.90;;;;;;4992804;28;20325;-69
2021/09/02 09:03:00;;;;;;;21.13;10.57;;;16.70;99.90;;;;;;4992480;28;20050;-69
2021/09/02 09:05:28;;;;;;;17.60;9.85;;;16.90;99.90;;;;;;4992634;28;20112;-69
2021/09/02 09:07:54;;;;;;;17.80;10.60;;;16.90;99.90;;;;;;4992215;28;20026;-69
2021/09/02 09:10:27;;;;;;;18.13;10.10;;;16.70;99.90;;;;;;4992446;28;20080;-69
2021/09/02 09:12:57;;;;;;;21.90;10.48;;;16.70;99.90;;;;;;4992544;28;20036;-69
2021/09/02 09:15:29;;;;;;;23.05;10.88;;;16.70;99.90;;;;;;4992346;28;20042;-69
2021/09/02 09:18:11;;;;;;;19.08;10.98;;;16.80;99.90;;;;;;5007367;28;20042;-70
2021/09/02 09:20:37;;;;;;;19.25;10.45;;;16.80;99.90;;;;;;4992139;28;20026;-70
2021/09/02 09:23:03;;;;;;;21.75;11.68;;;16.80;99.90;;;;;;4991824;28;20116;-70
2021/09/02 09:25:29;;;;;;;19.33;11.23;;;16.80;99.90;;;;;;4992531;28;20026;-70
2021/09/02 09:28:00;;;;;;;19.60;10.48;;;16.90;99.90;;;;;;4992507;28;20162;-71
2021/09/02 09:30:33;;;;;;;24.98;11.68;;;17.00;99.90;;;;;;4992377;28;20030;-70
2021/09/02 09:33:03;;;;;;;19.25;10.55;;;16.90;99.90;;;;;;4992715;28;20085;-70
2021/09/02 09:35:39;;;;;;;19.90;10.10;;;16.90;99.90;;;;;;4991502;28;20355;-70
2021/09/02 09:38:16;;;;;;;24.35;10.63;;;17.00;99.90;;;;;;4991803;28;20054;-69
2021/09/02 09:40:48;;;;;;;21.67;11.70;;;17.20;99.90;;;;;;4992052;28;20023;-70
2021/09/02 09:43:24;;;;;;;18.02;10.18;;;17.30;99.90;;;;;;4992096;28;20038;-70
2021/09/02 09:45:58;;;;;;;18.58;10.70;;;17.40;99.90;;;;;;4990524;28;20048;-67
2021/09/02 09:48:26;;;;;;;24.63;10.63;;;17.50;99.90;;;;;;4993302;28;20033;-70
2021/09/02 09:51:15;;;;;;;27.15;11.40;;;17.70;99.90;;;;;;4995550;28;20018;-68
2021/09/02 09:53:47;;;;;;;26.65;11.48;;;17.60;99.90;;;;;;4994124;28;20030;-67
2021/09/02 09:56:16;;;;;;;21.55;10.95;;;17.70;99.90;;;;;;4995644;28;20339;-68
2021/09/02 09:58:45;;;;;;;20.70;11.07;;;17.90;99.90;;;;;;4995390;28;20045;-68
2021/09/02 10:01:13;;;;;;;25.63;10.80;;;18.10;99.90;;;;;;4993459;28;20101;-67
2021/09/02 10:03:40;;;;;;;21.25;11.40;;;18.20;99.90;;;;;;4994929;28;20038;-68
2021/09/02 10:06:11;;;;;;;20.70;9.88;;;18.30;99.90;;;;;;4993978;28;20028;-68
2021/09/02 10:08:40;;;;;;;17.10;9.27;;;18.50;99.90;;;;;;4994898;28;20073;-69
2021/09/02 10:11:08;;;;;;;23.23;10.25;;;18.50;99.90;;;;;;4994603;28;20419;-68
2021/09/02 10:13:34;;;;;;;20.23;9.23;;;18.50;99.90;;;;;;4995258;28;20117;-67
2021/09/02 10:16:02;;;;;;;19.85;9.48;;;18.70;99.90;;;;;;4994475;28;20371;-67
2021/09/02 10:18:30;;;;;;;18.75;9.25;;;18.90;99.90;;;;;;4995007;28;20604;-68
2021/09/02 10:21:02;;;;;;;18.35;9.75;;;19.10;99.90;;;;;;4995314;28;20218;-68
2021/09/02 10:23:29;;;;;;;19.52;10.38;;;19.20;99.90;;;;;;4992410;28;20042;-68
2021/09/02 10:25:55;;;;;;;17.02;10.00;;;19.10;99.90;;;;;;4994928;28;20117;-68
2021/09/02 10:28:35;;;;;;;22.27;10.45;;;19.10;99.90;;;;;;4994397;28;20022;-68
2021/09/02 10:31:06;;;;;;;19.60;9.55;;;19.30;99.90;;;;;;4994396;28;20060;-68
2021/09/02 10:33:44;;;;;;;21.63;9.68;;;19.70;99.90;;;;;;4994388;28;20280;-68
2021/09/02 10:36:10;;;;;;;18.13;9.77;;;20.20;99.90;;;;;;4994761;28;20105;-68
2021/09/02 10:38:56;;;;;;;21.63;10.68;;;20.40;99.90;;;;;;4994934;28;20030;-67
2021/09/02 10:41:37;;;;;;;14.98;8.35;;;20.00;99.90;;;;;;4993904;28;20022;-68
2021/09/02 10:44:43;;;;;;;21.95;9.10;;;20.10;99.90;;;;;;4993579;28;20236;-68
2021/09/02 10:47:19;;;;;;;19.02;8.88;;;20.70;99.90;;;;;;4994195;28;20360;-68
2021/09/02 10:50:00;;;;;;;15.90;8.90;;;21.30;99.90;;;;;;4994063;28;20287;-68
2021/09/02 10:52:29;;;;;;;13.23;8.45;;;21.30;99.90;;;;;;4994469;28;20098;-68
2021/09/02 10:55:15;;;;;;;15.10;8.60;;;21.50;99.90;;;;;;4994554;28;20100;-68
2021/09/02 10:57:41;;;;;;;15.85;8.05;;;22.10;99.90;;;;;;4994169;28;20038;-68
2021/09/02 11:00:07;;;;;;;19.63;8.48;;;22.60;99.90;;;;;;4992325;28;20358;-68
2021/09/02 11:02:38;;;;;;;19.98;9.38;;;22.20;99.90;;;;;;4992806;28;20061;-68
2021/09/02 11:05:06;;;;;;;17.88;9.13;;;21.70;99.90;;;;;;4994651;28;20667;-68
2021/09/02 11:07:45;;;;;;;17.55;8.40;;;21.60;99.90;;;;;;4993619;28;20037;-68
2021/09/02 11:10:22;;;;;;;19.58;9.57;;;21.60;99.90;;;;;;4993983;28;20377;-68
2021/09/02 11:13:02;;;;;;;23.75;9.45;;;21.50;99.90;;;;;;4994283;28;20034;-68
2021/09/02 11:15:28;;;;;;;17.20;8.93;;;21.20;99.90;;;;;;4993714;28;20438;-68
2021/09/02 11:18:05;;;;;;;19.98;9.48;;;21.10;99.90;;;;;;4992381;28;20042;-68
2021/09/02 11:20:34;;;;;;;18.02;9.25;;;21.30;99.90;;;;;;4994277;28;20074;-68
2021/09/02 11:23:10;;;;;;;16.67;9.07;;;21.80;99.90;;;;;;4994163;28;20072;-68
2021/09/02 11:25:44;;;;;;;21.77;9.35;;;22.20;99.90;;;;;;4993298;28;20018;-68
2021/09/02 11:28:10;;;;;;;21.77;10.13;;;22.40;99.90;;;;;;4993963;28;20034;-69
2021/09/02 11:30:37;;;;;;;18.55;9.63;;;22.90;99.90;;;;;;4993890;28;20022;-68
2021/09/02 11:33:06;;;;;;;18.65;8.38;;;23.10;99.90;;;;;;4992543;28;20430;-68
2021/09/02 11:35:32;;;;;;;15.55;8.05;;;23.70;99.90;;;;;;4993355;28;20030;-68
2021/09/02 11:37:58;;;;;;;17.33;8.93;;;24.00;99.90;;;;;;4993860;28;20132;-68
2021/09/02 11:40:32;;;;;;;15.07;8.25;;;23.80;99.90;;;;;;4993869;28;20029;-68
2021/09/02 11:42:59;;;;;;;14.35;7.95;;;24.00;99.90;;;;;;4993230;28;20037;-68
2021/09/02 11:45:27;;;;;;;13.27;7.60;;;24.50;99.90;;;;;;4993783;28;20417;-68
2021/09/02 11:47:54;;;;;;;14.67;8.43;;;24.60;99.90;;;;;;4993239;28;20036;-69
2021/09/02 11:50:22;;;;;;;16.80;9.32;;;24.30;99.90;;;;;;4993263;28;20030;-68
2021/09/02 11:52:53;;;;;;;13.68;7.70;;;23.60;99.90;;;;;;4992943;28;20034;-68
2021/09/02 11:55:21;;;;;;;16.60;8.52;;;23.30;99.90;;;;;;4993297;28;20021;-69
2021/09/02 11:57:51;;;;;;;14.30;8.70;;;23.40;99.90;;;;;;4993826;28;20347;-69
2021/09/02 12:00:18;;;;;;;18.65;8.55;;;23.90;99.90;;;;;;5007689;28;20026;-69
2021/09/02 12:02:52;;;;;;;17.60;7.55;;;23.90;99.90;;;;;;4992729;28;20112;-69
2021/09/02 12:05:20;;;;;;;18.35;8.32;;;24.40;99.90;;;;;;4992289;28;20158;-69
2021/09/02 12:07:49;;;;;;;16.58;8.38;;;24.70;99.90;;;;;;4991951;28;20026;-70
2021/09/02 12:10:20;;;;;;;17.05;8.30;;;25.10;99.90;;;;;;4992862;28;20089;-70
2021/09/02 12:12:48;;;;;;;17.25;8.02;;;25.00;99.90;;;;;;4993185;28;20367;-71
2021/09/02 12:15:22;;;;;;;17.45;8.98;;;24.90;99.90;;;;;;4992068;28;20053;-70
2021/09/02 12:17:48;;;;;;;21.30;8.32;;;24.40;99.90;;;;;;4992631;28;20328;-70
2021/09/02 12:20:23;;;;;;;15.40;8.20;;;24.60;99.90;;;;;;4993214;28;20050;-71
2021/09/02 12:22:49;;;;;;;19.75;8.80;;;25.00;99.90;;;;;;4992778;28;20617;-71
2021/09/02 12:25:22;;;;;;;12.65;8.52;;;25.10;99.90;;;;;;4992949;28;20054;-71
2021/09/02 12:27:53;;;;;;;18.25;10.30;;;24.90;99.90;;;;;;4992656;28;20624;-70
2021/09/02 12:30:45;;;;;;;16.50;9.55;;;24.80;99.90;;;;;;4991809;28;20328;-71
2021/09/02 12:33:16;;;;;;;14.77;9.95;;;24.50;99.90;;;;;;4992754;28;20283;-70
2021/09/02 12:35:44;;;;;;;20.30;8.68;;;24.60;99.90;;;;;;4992876;28;20026;-71
2021/09/02 12:38:33;;;;;;;16.75;10.18;;;25.20;99.90;;;;;;4993007;28;20030;-72